Argus, California
Current Conditions -  °F | °C
As of 6:56 PM on Saturday 24 Jan 2015 (Local Time) from KNID Reporting Station
Clear Clear  
Wind Chill: 53°   Ceiling: Unl
Heat Index: 53°   Visibility: 10mi
Dew Point: 16°   Wind: 6mph
Humidity: 23%   Direction: 200°SSW
Pressure: 30.18"   Gusts: NA
Location:  35.6496°N, 117.375°W
Report Text: KNID 250256Z AUTO 20005KT 10SM CLR 12/M09 A3018 RMK AO2 SLP225 T01171089 53007 $
Loading
Personal Weather Stations






























Interactive Weather Map New forecast layout! Learn more

10-Day Weather Forecast

Advertisements
Track Severe Weather on mobile